Map

Track Data

SID SEASON NUMBER BASIN SUBBASIN NAME ISO_TIME NATURE LAT LON WMO_WIND WMO_PRES WMO_AGENCY TRACK_TYPE DIST2LAND LANDFALL IFLAG USA_AGENCY USA_ATCF_ID USA_LAT USA_LON USA_RECORD USA_STATUS USA_WIND USA_PRES USA_SSHS USA_R34_NE USA_R34_SE USA_R34_SW USA_R34_NW USA_R50_NE USA_R50_SE USA_R50_SW USA_R50_NW USA_R64_NE USA_R64_SE USA_R64_SW USA_R64_NW USA_POCI USA_ROCI USA_RMW USA_EYE TOKYO_LAT TOKYO_LON TOKYO_GRADE TOKYO_WIND TOKYO_PRES TOKYO_R50_DIR TOKYO_R50_LONG TOKYO_R50_SHORT TOKYO_R30_DIR TOKYO_R30_LONG TOKYO_R30_SHORT TOKYO_LAND CMA_LAT CMA_LON CMA_CAT CMA_WIND CMA_PRES HKO_LAT HKO_LON HKO_CAT HKO_WIND HKO_PRES NEWDELHI_LAT NEWDELHI_LON NEWDELHI_GRADE NEWDELHI_WIND NEWDELHI_PRES NEWDELHI_CI NEWDELHI_DP NEWDELHI_POCI REUNION_LAT REUNION_LON REUNION_TYPE REUNION_WIND REUNION_PRES REUNION_TNUM REUNION_CI REUNION_RMW REUNION_R34_NE REUNION_R34_SE REUNION_R34_SW REUNION_R34_NW REUNION_R50_NE REUNION_R50_SE REUNION_R50_SW REUNION_R50_NW REUNION_R64_NE REUNION_R64_SE REUNION_R64_SW REUNION_R64_NW BOM_LAT BOM_LON BOM_TYPE BOM_WIND BOM_PRES BOM_TNUM BOM_CI BOM_RMW BOM_R34_NE BOM_R34_SE BOM_R34_SW BOM_R34_NW BOM_R50_NE BOM_R50_SE BOM_R50_SW BOM_R50_NW BOM_R64_NE BOM_R64_SE BOM_R64_SW BOM_R64_NW BOM_ROCI BOM_POCI BOM_EYE BOM_POS_METHOD BOM_PRES_METHOD NADI_LAT NADI_LON NADI_CAT NADI_WIND NADI_PRES WELLINGTON_LAT WELLINGTON_LON WELLINGTON_WIND WELLINGTON_PRES DS824_LAT DS824_LON DS824_STAGE DS824_WIND DS824_PRES TD9636_LAT TD9636_LON TD9636_STAGE TD9636_WIND TD9636_PRES TD9635_LAT TD9635_LON TD9635_WIND TD9635_PRES TD9635_ROCI NEUMANN_LAT NEUMANN_LON NEUMANN_CLASS NEUMANN_WIND NEUMANN_PRES MLC_LAT MLC_LON MLC_CLASS MLC_WIND MLC_PRES USA_GUST BOM_GUST BOM_GUST_PER REUNION_GUST REUNION_GUST_PER USA_SEAHGT USA_SEARAD_NE USA_SEARAD_SE USA_SEARAD_SW USA_SEARAD_NW STORM_SPEED STORM_DIR
1960174N14257 1960 30 EP MM BONNY 1960-06-22 00:00:00 TS 13.9000 -102.600 45 hurdat_epa main 413 401 O________OO___ hurdat_epa EP021960 13.9000 -102.600 TS 45 0 13.9000 -102.600 TC 45 13.9000 -102.600 2 7 305
1960174N14257 1960 30 EP MM BONNY 1960-06-22 03:00:00 TS 14.1015 -102.896 main 406 398 P________PP___ EP021960 14.0976 -102.890 TS 45 0 14.0976 -102.890 TC 45 14.1175 -102.921 2 7 304
1960174N14257 1960 30 EP MM BONNY 1960-06-22 06:00:00 TS 14.3056 -103.209 45 hurdat_epa main 404 400 O________OP___ hurdat_epa EP021960 14.3000 -103.200 TS 45 0 14.3000 -103.200 TC 45 14.3278 -103.244 2 8 303
1960174N14257 1960 30 EP MM BONNY 1960-06-22 09:00:00 TS 14.5108 -103.548 main 401 390 P________PP___ EP021960 14.5075 -103.543 TS 45 0 14.5075 -103.543 TC 45 14.5242 -103.570 2 8 301
1960174N14257 1960 30 EP MM BONNY 1960-06-22 12:00:00 TS 14.7000 -103.900 45 hurdat_epa main 394 387 O________OO___ hurdat_epa EP021960 14.7000 -103.900 TS 45 0 14.7000 -103.900 TC 45 14.7000 -103.900 2 8 296
1960174N14257 1960 30 EP MM BONNY 1960-06-22 15:00:00 TS 14.8507 -104.253 main 387 383 P________PP___ EP021960 14.8500 -104.258 TS 45 0 14.8500 -104.258 TC 45 14.8537 -104.234 2 7 294
1960174N14257 1960 30 EP MM BONNY 1960-06-22 18:00:00 TS 15.0010 -104.593 45 hurdat_epa main 387 377 O________OP___ hurdat_epa EP021960 15.0000 -104.600 TS 45 0 15.0000 -104.600 TC 45 15.0049 -104.566 2 7 297
1960174N14257 1960 30 EP MM BONNY 1960-06-22 21:00:00 TS 15.1777 -104.904 main 377 371 P________PP___ EP021960 15.1774 -104.908 TS 45 0 15.1774 -104.908 TC 45 15.1787 -104.890 2 7 304
1960174N14257 1960 30 EP MM BONNY 1960-06-23 00:00:00 TS 15.4000 -105.200 45 hurdat_epa main 371 360 O________OO___ hurdat_epa EP021960 15.4000 -105.200 TS 45 0 15.4000 -105.200 TC 45 15.4000 -105.200 2 8 311
1960174N14257 1960 30 EP MM BONNY 1960-06-23 03:00:00 TS 15.6775 -105.507 main 360 354 P________PP___ EP021960 15.6700 -105.508 TS 45 0 15.6700 -105.508 TC 45 15.7077 -105.505 2 8 317
1960174N14257 1960 30 EP MM BONNY 1960-06-23 06:00:00 TS 16.0125 -105.799 45 hurdat_epa main 354 338 O________OP___ hurdat_epa EP021960 16.0000 -105.800 TS 45 0 16.0000 -105.800 TC 45 16.0625 -105.795 2 9 324
1960174N14257 1960 30 EP MM BONNY 1960-06-23 09:00:00 TS 16.4072 -106.064 main 342 311 P________PP___ EP021960 16.4000 -106.065 TS 45 0 16.4000 -106.065 TC 45 16.4359 -106.062 2 9 329
1960174N14257 1960 30 EP MM BONNY 1960-06-23 12:00:00 TS 16.8000 -106.300 45 hurdat_epa main 311 295 O________OO___ hurdat_epa EP021960 16.8000 -106.300 TS 45 0 16.8000 -106.300 TC 45 16.8000 -106.300 2 8 328
1960174N14257 1960 30 EP MM BONNY 1960-06-23 15:00:00 TS 17.1132 -106.519 main 295 284 P________PP___ EP021960 17.1150 -106.515 TS 45 0 17.1150 -106.515 TC 45 17.1062 -106.532 2 7 327
1960174N14257 1960 30 EP MM BONNY 1960-06-23 18:00:00 TS 17.4000 -106.707 45 hurdat_epa main 284 276 O________OP___ hurdat_epa EP021960 17.4000 -106.700 TS 45 0 17.4000 -106.700 TC 45 17.3999 -106.733 2 7 329
1960174N14257 1960 30 EP MM BONNY 1960-06-23 21:00:00 TS 17.6927 -106.882 main 276 261 P________PP___ EP021960 17.6925 -106.880 TS 45 0 17.6925 -106.880 TC 45 17.6937 -106.892 2 7 335
1960174N14257 1960 30 EP MM BONNY 1960-06-24 00:00:00 TS 18.0000 -107.000 45 hurdat_epa main 261 237 O________OO___ hurdat_epa EP021960 18.0000 -107.000 TS 45 0 18.0000 -107.000 TC 45 18.0000 -107.000 2 7 348
1960174N14257 1960 30 EP MM BONNY 1960-06-24 03:00:00 TS 18.3460 -107.024 main 237 210 P________PP___ EP021960 18.3425 -107.023 TS 45 0 18.3425 -107.023 TC 45 18.3599 -107.031 2 7 0
1960174N14257 1960 30 EP MM BONNY 1960-06-24 06:00:00 TS 18.7060 -107.003 45 hurdat_epa main 210 186 O________OP___ hurdat_epa EP021960 18.7000 -107.000 TS 45 0 18.7000 -107.000 TC 45 18.7298 -107.016 2 7 4
1960174N14257 1960 30 EP MM BONNY 1960-06-24 09:00:00 TS 19.0750 -106.987 main 186 170 P________PP___ EP021960 19.0725 -106.985 TS 45 0 19.0725 -106.985 TC 45 19.0849 -106.993 2 7 2
1960174N14257 1960 30 EP MM BONNY 1960-06-24 12:00:00 TS 19.4000 -107.000 45 hurdat_epa main 170 162 O________OO___ hurdat_epa EP021960 19.4000 -107.000 TS 45 0 19.4000 -107.000 TC 45 19.4000 -107.000 2 6 351
1960174N14257 1960 30 EP MM BONNY 1960-06-24 15:00:00 TS 19.6291 -107.078 main 171 165 P________PP___ EP021960 19.6225 -107.078 TS 45 0 19.6225 -107.078 TC 45 19.6553 -107.081 2 5 335
1960174N14257 1960 30 EP MM BONNY 1960-06-24 18:00:00 TS 19.8135 -107.199 45 hurdat_epa main 170 166 O________OP___ hurdat_epa EP021960 19.8000 -107.200 TS 45 0 19.8000 -107.200 TC 45 19.8675 -107.197 2 5 327
1960174N14257 1960 30 EP MM BONNY 1960-06-24 21:00:00 TS 20.0152 -107.342 main 172 172 P________PP___ EP021960 20.0075 -107.342 TS 45 0 20.0075 -107.342 TC 45 20.0459 -107.340 2 5 324
1960174N14257 1960 30 EP MM BONNY 1960-06-25 00:00:00 TS 20.2000 -107.500 45 hurdat_epa main 189 187 O________OO___ hurdat_epa EP021960 20.2000 -107.500 TS 45 0 20.2000 -107.500 TC 45 20.2000 -107.500 2 4 321
1960174N14257 1960 30 EP MM BONNY 1960-06-25 03:00:00 TS 20.3645 -107.640 main 197 197 P________PP___ EP021960 20.3650 -107.643 TS 45 0 20.3650 -107.643 TC 45 20.3625 -107.628 2 4 317
1960174N14257 1960 30 EP MM BONNY 1960-06-25 06:00:00 TS 20.5004 -107.795 45 hurdat_epa main 219 219 O________OP___ hurdat_epa EP021960 20.5000 -107.800 TS 45 0 20.5000 -107.800 TC 45 20.5020 -107.775 2 4 309
1960174N14257 1960 30 EP MM BONNY 1960-06-25 09:00:00 TS 20.6150 -107.968 main 240 240 P________PP___ EP021960 20.6149 -107.970 TS 45 0 20.6149 -107.970 TC 45 20.6155 -107.959 2 4 298
1960174N14257 1960 30 EP MM BONNY 1960-06-25 12:00:00 TS 20.7000 -108.200 45 hurdat_epa main 262 262 O________OO___ hurdat_epa EP021960 20.7000 -108.200 TS 45 0 20.7000 -108.200 TC 45 20.7000 -108.200 2 5 286
1960174N14257 1960 30 EP MM BONNY 1960-06-25 15:00:00 TS 20.7628 -108.518 main 270 252 P________PP___ EP021960 20.7650 -108.520 TS 45 0 20.7650 -108.520 TC 45 20.7541 -108.509 2 7 278
1960174N14257 1960 30 EP MM BONNY 1960-06-25 18:00:00 TS 20.7967 -108.895 45 hurdat_epa main 252 240 O________OP___ hurdat_epa EP021960 20.8000 -108.900 TS 45 0 20.8000 -108.900 TC 45 20.7837 -108.875 2 7 273
1960174N14257 1960 30 EP MM BONNY 1960-06-25 21:00:00 TS 20.8054 -109.294 main 240 235 P________PP___ EP021960 20.8077 -109.298 TS 45 0 20.8077 -109.298 TC 45 20.7964 -109.278 2 8 270
1960174N14257 1960 30 EP MM BONNY 1960-06-26 00:00:00 TS 20.8000 -109.700 45 hurdat_epa main 235 O________OO___ hurdat_epa EP021960 20.8000 -109.700 TS 45 0 20.8000 -109.700 TC 45 20.8000 -109.700 2 8 269

About IBTrACS Database

This database is a web-friendly format of International Best Track Archive for Climate Stewardship (IBTrACS), a global best track data archive curated by NOAA dating back to 1842.

Updated: 2021-10-08